createdAt,value
2022-12-14T00:00:18.991Z,31.97
2022-12-14T00:02:50.564Z,29.42
2022-12-14T00:05:22.050Z,28.10
2022-12-14T00:07:53.494Z,28.85
2022-12-14T00:10:24.931Z,27.48
2022-12-14T00:12:57.836Z,27.55
2022-12-14T00:15:29.541Z,28.60
2022-12-14T00:18:01.042Z,28.33
2022-12-14T00:20:33.836Z,28.20
2022-12-14T00:23:05.261Z,27.90
2022-12-14T00:25:36.734Z,26.25
2022-12-14T00:28:08.136Z,29.27
2022-12-14T00:30:39.537Z,30.73
2022-12-14T00:33:10.934Z,27.23
2022-12-14T00:35:42.391Z,29.33
2022-12-14T00:38:13.765Z,25.70
2022-12-14T00:40:45.223Z,27.08
2022-12-14T00:43:16.735Z,24.10
2022-12-14T00:45:48.148Z,25.55
2022-12-14T00:48:20.997Z,27.02
2022-12-14T00:50:54.336Z,23.65
2022-12-14T00:53:25.989Z,26.20
2022-12-14T00:55:57.545Z,26.63
2022-12-14T00:58:29.410Z,26.13
2022-12-14T01:01:07.024Z,27.05
2022-12-14T01:03:38.555Z,26.00
2022-12-14T01:06:22.772Z,26.88
2022-12-14T01:08:54.226Z,24.23
2022-12-14T01:11:25.629Z,25.98
2022-12-14T01:13:57.070Z,26.58
2022-12-14T01:16:28.542Z,27.83
2022-12-14T01:19:00.666Z,26.63
2022-12-14T01:21:32.527Z,25.30
2022-12-14T01:24:05.829Z,26.73
2022-12-14T01:26:39.045Z,25.98
2022-12-14T01:29:11.497Z,27.02
2022-12-14T01:31:43.242Z,26.25
2022-12-14T01:34:14.713Z,27.10
2022-12-14T01:36:46.348Z,25.63
2022-12-14T01:39:17.775Z,25.10
2022-12-14T01:41:50.774Z,23.55
2022-12-14T01:44:22.127Z,25.17
2022-12-14T01:46:58.375Z,24.92
2022-12-14T01:49:47.351Z,23.42
2022-12-14T01:52:27.892Z,24.63
2022-12-14T01:55:04.348Z,22.52
2022-12-14T01:57:59.968Z,23.88
2022-12-14T02:00:31.630Z,24.10
2022-12-14T02:03:37.427Z,23.02
2022-12-14T02:06:14.310Z,23.93
2022-12-14T02:08:48.260Z,23.03
2022-12-14T02:11:35.843Z,23.85
2022-12-14T02:14:07.237Z,22.90
2022-12-14T02:16:39.947Z,22.90
2022-12-14T02:19:11.385Z,22.80
2022-12-14T02:21:42.809Z,21.88
2022-12-14T02:24:30.881Z,23.90
2022-12-14T02:27:12.565Z,24.95
2022-12-14T02:30:04.940Z,22.10
2022-12-14T02:32:57.560Z,20.58
2022-12-14T02:36:10.532Z,21.08
2022-12-14T02:39:13.858Z,21.88
2022-12-14T02:41:57.345Z,22.65
2022-12-14T02:44:31.424Z,22.35
2022-12-14T02:47:23.589Z,20.98
2022-12-14T02:50:13.828Z,21.15
2022-12-14T02:53:04.128Z,22.70
2022-12-14T02:55:42.181Z,22.90
2022-12-14T02:58:23.684Z,22.80
2022-12-14T03:00:56.436Z,22.60
2022-12-14T03:03:28.309Z,22.83
2022-12-14T03:06:04.157Z,22.83
2022-12-14T03:08:36.335Z,23.42
2022-12-14T03:11:23.997Z,26.13
2022-12-14T03:14:04.646Z,26.00
2022-12-14T03:16:44.692Z,23.15
2022-12-14T03:19:29.900Z,25.08
2022-12-14T03:22:11.038Z,22.67
2022-12-14T03:24:50.984Z,25.90
2022-12-14T03:27:34.564Z,25.10
2022-12-14T03:30:10.641Z,23.80
2022-12-14T03:32:52.555Z,22.63
2022-12-14T03:35:29.122Z,24.38
2022-12-14T03:38:13.596Z,25.92
2022-12-14T03:41:11.377Z,24.35
2022-12-14T03:44:11.279Z,21.70
2022-12-14T03:47:06.153Z,22.23
2022-12-14T03:49:56.514Z,25.08
2022-12-14T03:52:40.067Z,23.17
2022-12-14T03:55:26.814Z,24.55
2022-12-14T03:58:16.988Z,24.40
2022-12-14T04:01:03.432Z,23.35
2022-12-14T04:03:48.565Z,23.40
2022-12-14T04:06:46.413Z,26.08
2022-12-14T04:09:38.555Z,25.47
2022-12-14T04:12:18.880Z,27.35
2022-12-14T04:15:20.282Z,24.77
2022-12-14T04:17:59.880Z,23.67
2022-12-14T04:20:59.477Z,26.50
2022-12-14T04:23:51.873Z,22.10
2022-12-14T04:26:28.848Z,23.23
2022-12-14T04:29:05.577Z,24.85
2022-12-14T04:31:41.250Z,24.55
2022-12-14T04:34:16.009Z,25.83
2022-12-14T04:36:58.247Z,24.33
2022-12-14T04:39:53.801Z,25.50
2022-12-14T04:42:33.781Z,24.25
2022-12-14T04:45:12.518Z,24.08
2022-12-14T04:47:59.428Z,24.63
2022-12-14T04:50:44.302Z,23.05
2022-12-14T04:53:40.121Z,23.92
2022-12-14T04:56:53.910Z,21.52
2022-12-14T04:59:26.176Z,25.35
2022-12-14T05:02:10.550Z,26.17
2022-12-14T05:05:35.233Z,26.02
2022-12-14T05:08:22.070Z,23.65
2022-12-14T05:11:48.004Z,23.75
2022-12-14T05:16:53.147Z,24.13
2022-12-14T05:19:27.527Z,25.00
2022-12-14T05:22:12.454Z,22.90
2022-12-14T05:27:36.494Z,22.65
2022-12-14T05:30:11.866Z,21.90
2022-12-14T05:32:44.768Z,22.00
2022-12-14T05:35:17.121Z,24.63
2022-12-14T05:37:51.329Z,26.63
2022-12-14T05:40:27.664Z,21.00
2022-12-14T05:43:07.529Z,22.30
2022-12-14T05:45:39.071Z,22.05
2022-12-14T05:48:19.344Z,21.70
2022-12-14T05:50:53.272Z,22.50
2022-12-14T05:53:25.562Z,23.85
2022-12-14T05:55:59.045Z,20.77
2022-12-14T05:58:30.490Z,21.67
2022-12-14T06:01:04.478Z,20.67
2022-12-14T06:03:35.992Z,20.98
2022-12-14T06:06:10.135Z,21.63
2022-12-14T06:08:44.633Z,22.23
2022-12-14T06:11:21.797Z,21.88
2022-12-14T06:13:53.269Z,20.67
2022-12-14T06:16:25.701Z,23.20
2022-12-14T06:19:00.093Z,20.88
2022-12-14T06:21:34.459Z,22.88
2022-12-14T06:24:06.662Z,23.13
2022-12-14T06:26:38.954Z,21.97
2022-12-14T06:29:16.667Z,21.27
2022-12-14T06:31:49.004Z,22.20
2022-12-14T06:34:26.349Z,23.38
2022-12-14T06:36:59.817Z,23.13
2022-12-14T06:39:31.350Z,22.58
2022-12-14T06:42:02.901Z,21.20
2022-12-14T06:44:34.698Z,20.10
2022-12-14T06:47:06.111Z,19.35
2022-12-14T06:49:37.551Z,20.80
2022-12-14T06:52:10.293Z,21.67
2022-12-14T06:54:41.731Z,20.40
2022-12-14T06:57:13.163Z,21.05
2022-12-14T06:59:44.592Z,22.00
2022-12-14T07:02:16.215Z,21.17
2022-12-14T07:04:47.814Z,21.05
2022-12-14T07:07:19.224Z,19.70
2022-12-14T07:09:50.694Z,21.50
2022-12-14T07:12:22.089Z,20.95
2022-12-14T07:14:54.393Z,21.60
2022-12-14T07:17:25.853Z,22.98
2022-12-14T07:19:57.265Z,20.92
2022-12-14T07:22:28.693Z,21.27
2022-12-14T07:25:00.143Z,21.40
2022-12-14T07:27:31.566Z,22.38
2022-12-14T07:30:03.171Z,24.67
2022-12-14T07:32:34.620Z,18.92
2022-12-14T07:35:07.851Z,20.48
2022-12-14T07:37:41.828Z,21.75
2022-12-14T07:40:13.331Z,23.37
2022-12-14T07:42:48.548Z,21.10
2022-12-14T07:45:19.920Z,21.90
2022-12-14T07:47:51.349Z,18.73
2022-12-14T07:50:22.906Z,20.23
2022-12-14T07:52:54.306Z,20.33
2022-12-14T07:55:25.753Z,19.90
2022-12-14T07:57:57.138Z,20.20
2022-12-14T08:00:28.588Z,20.77
2022-12-14T08:03:00.004Z,18.93
2022-12-14T08:05:31.432Z,21.27
2022-12-14T08:08:02.897Z,21.10
2022-12-14T08:10:40.025Z,20.37
2022-12-14T08:13:11.876Z,21.08
2022-12-14T08:15:43.325Z,20.55
2022-12-14T08:18:14.731Z,21.10
2022-12-14T08:20:53.382Z,20.83
2022-12-14T08:23:25.008Z,21.40
2022-12-14T08:25:58.116Z,21.20
2022-12-14T08:28:30.998Z,20.57
2022-12-14T08:31:07.793Z,22.20
2022-12-14T08:33:40.074Z,19.17
2022-12-14T08:36:19.202Z,19.67
2022-12-14T08:38:57.946Z,21.08
2022-12-14T08:41:29.882Z,20.23
2022-12-14T08:44:03.001Z,20.60
2022-12-14T08:46:35.513Z,19.13
2022-12-14T08:49:07.051Z,20.20
2022-12-14T08:51:38.488Z,20.95
2022-12-14T08:54:10.089Z,21.48
2022-12-14T08:56:41.539Z,19.67
2022-12-14T08:59:30.255Z,21.30
2022-12-14T09:02:04.832Z,18.90
2022-12-14T09:04:36.426Z,19.40
2022-12-14T09:07:07.819Z,21.33
2022-12-14T09:09:39.269Z,19.13
2022-12-14T09:12:10.698Z,19.35
2022-12-14T09:14:42.174Z,21.25
2022-12-14T09:17:13.601Z,18.33
2022-12-14T09:19:45.232Z,19.02
2022-12-14T09:22:16.642Z,17.95
2022-12-14T09:27:19.589Z,18.80
2022-12-14T09:29:51.132Z,20.15
2022-12-14T09:32:22.587Z,18.70
2022-12-14T09:34:54.005Z,20.85
2022-12-14T09:37:25.618Z,18.95
2022-12-14T09:39:57.007Z,21.38
2022-12-14T09:42:37.260Z,20.60
2022-12-14T09:45:29.765Z,19.23
2022-12-14T09:48:18.495Z,18.65
2022-12-14T09:50:52.679Z,19.98
2022-12-14T09:53:25.471Z,20.48
2022-12-14T09:55:58.450Z,20.13
2022-12-14T09:58:31.830Z,17.95
2022-12-14T10:01:03.599Z,18.23
2022-12-14T10:04:08.971Z,19.38
2022-12-14T10:06:58.596Z,20.88
2022-12-14T10:09:35.933Z,20.10
2022-12-14T10:12:34.342Z,20.23
2022-12-14T10:15:12.360Z,17.30
2022-12-14T10:17:59.070Z,20.15
2022-12-14T10:20:46.440Z,17.77
2022-12-14T10:23:23.163Z,19.80
2022-12-14T10:26:00.637Z,18.02
2022-12-14T10:28:45.077Z,18.83
2022-12-14T10:31:32.967Z,17.37
2022-12-14T10:34:31.894Z,18.42
2022-12-14T10:37:18.776Z,16.80
2022-12-14T10:40:10.823Z,18.08
2022-12-14T10:42:55.618Z,18.48
2022-12-14T10:46:00.023Z,17.83
2022-12-14T10:48:48.149Z,15.98
2022-12-14T10:51:40.422Z,16.98
2022-12-14T10:54:25.306Z,18.27
2022-12-14T10:56:56.841Z,15.13
2022-12-14T10:59:36.675Z,16.98
2022-12-14T11:02:15.198Z,15.75
2022-12-14T11:05:00.594Z,18.27
2022-12-14T11:07:31.934Z,17.75
2022-12-14T11:10:17.420Z,19.38
2022-12-14T11:13:05.847Z,15.25
2022-12-14T11:15:39.751Z,18.08
2022-12-14T11:18:17.359Z,17.60
2022-12-14T11:20:51.909Z,19.20
2022-12-14T11:23:29.458Z,17.30
2022-12-14T11:26:03.733Z,17.92
2022-12-14T11:28:50.686Z,18.55
2022-12-14T11:31:36.677Z,15.70
2022-12-14T11:34:22.347Z,15.13
2022-12-14T11:36:54.072Z,15.80
2022-12-14T11:39:25.924Z,16.42
2022-12-14T11:41:57.273Z,14.68
2022-12-14T11:44:36.483Z,15.65
2022-12-14T11:47:25.334Z,16.00
2022-12-14T11:49:57.156Z,15.38
2022-12-14T11:52:37.807Z,14.02
2022-12-14T11:55:15.215Z,14.50
2022-12-14T11:57:52.464Z,15.00
2022-12-14T12:00:27.284Z,13.82
2022-12-14T12:03:05.377Z,13.52
2022-12-14T12:05:41.598Z,14.13
2022-12-14T12:08:27.121Z,108.13
2022-12-14T12:11:02.377Z,46.33
2022-12-14T12:13:42.045Z,29.15
2022-12-14T12:16:16.944Z,15.07
2022-12-14T12:18:54.228Z,13.73
2022-12-14T12:21:35.827Z,14.13
2022-12-14T12:24:20.136Z,11.60
2022-12-14T12:27:07.774Z,13.88
2022-12-14T12:29:54.167Z,12.60
2022-12-14T12:32:42.641Z,11.52
2022-12-14T12:35:16.529Z,11.18
2022-12-14T12:37:57.038Z,10.40
2022-12-14T12:41:00.722Z,11.20
2022-12-14T12:43:39.072Z,11.70
2022-12-14T12:46:13.247Z,10.57
2022-12-14T12:48:53.546Z,12.50
2022-12-14T12:51:44.116Z,10.90
2022-12-14T12:54:53.509Z,10.37
2022-12-14T12:57:30.997Z,10.32
2022-12-14T13:00:02.673Z,11.60
2022-12-14T13:02:39.063Z,9.05
2022-12-14T13:05:44.638Z,11.80
2022-12-14T13:08:14.052Z,10.80
2022-12-14T13:11:17.217Z,12.47
2022-12-14T13:13:45.381Z,10.00
2022-12-14T13:16:26.287Z,10.48
2022-12-14T13:19:40.987Z,9.93
2022-12-14T13:22:06.348Z,11.13
2022-12-14T13:24:38.856Z,13.02
2022-12-14T13:27:31.691Z,11.23
2022-12-14T13:30:38.567Z,10.85
2022-12-14T13:33:15.868Z,10.15
2022-12-14T13:35:56.421Z,14.15
2022-12-14T13:39:05.669Z,10.93
2022-12-14T13:41:42.976Z,10.55
2022-12-14T13:44:44.765Z,9.60
2022-12-14T13:47:20.792Z,8.55
2022-12-14T13:50:26.848Z,12.60
2022-12-14T13:52:48.980Z,9.73
2022-12-14T13:55:29.794Z,9.00
2022-12-14T13:58:22.269Z,10.05
2022-12-14T14:00:59.824Z,8.70
2022-12-14T14:03:34.097Z,6.60
2022-12-14T14:06:15.051Z,7.40
2022-12-14T14:08:49.555Z,6.38
2022-12-14T14:11:43.604Z,8.43
2022-12-14T14:14:26.098Z,7.93
2022-12-14T14:17:03.413Z,8.63
2022-12-14T14:19:41.479Z,7.23
2022-12-14T14:22:23.678Z,7.43
2022-12-14T14:25:09.319Z,7.13
2022-12-14T14:27:50.311Z,8.25
2022-12-14T14:30:28.584Z,9.75
2022-12-14T14:33:35.898Z,8.52
2022-12-14T14:35:52.141Z,7.85
2022-12-14T14:38:46.312Z,8.85
2022-12-14T14:41:30.121Z,8.20
2022-12-14T14:44:07.689Z,10.23
2022-12-14T14:46:46.247Z,9.50
2022-12-14T14:49:40.346Z,9.98
2022-12-14T14:52:44.978Z,7.63
2022-12-14T14:58:33.511Z,10.47
2022-12-14T15:01:26.158Z,8.85
2022-12-14T15:04:23.900Z,9.33
2022-12-14T15:07:02.248Z,8.07
2022-12-14T15:09:39.236Z,9.10
2022-12-14T15:12:30.772Z,10.10
2022-12-14T15:15:06.417Z,11.93
2022-12-14T15:17:37.850Z,12.33
2022-12-14T15:20:40.013Z,10.80
2022-12-14T15:23:14.388Z,10.80
2022-12-14T15:25:45.879Z,11.85
2022-12-14T15:28:22.749Z,12.23
2022-12-14T15:30:57.461Z,11.93
2022-12-14T15:33:33.245Z,11.87
2022-12-14T15:36:14.630Z,13.93
2022-12-14T15:38:54.803Z,12.50
2022-12-14T15:41:29.067Z,12.48
2022-12-14T15:44:00.675Z,15.10
2022-12-14T15:46:35.495Z,12.32
2022-12-14T15:49:07.901Z,13.85
2022-12-14T15:51:42.145Z,12.27
2022-12-14T15:54:21.181Z,12.02
2022-12-14T15:56:58.633Z,14.43
2022-12-14T15:59:34.861Z,11.80
2022-12-14T16:02:30.317Z,13.05
2022-12-14T16:05:03.654Z,12.50
2022-12-14T16:07:39.285Z,14.75
2022-12-14T16:10:26.503Z,13.52
2022-12-14T16:13:06.932Z,14.18
2022-12-14T16:15:38.449Z,12.52
2022-12-14T16:18:14.141Z,15.82
2022-12-14T16:20:54.574Z,15.35
2022-12-14T16:23:33.378Z,15.82
2022-12-14T16:26:14.206Z,14.30
2022-12-14T16:28:45.616Z,15.98
2022-12-14T16:31:22.537Z,12.70
2022-12-14T16:34:16.372Z,16.98
2022-12-14T16:37:08.012Z,15.02
2022-12-14T16:39:45.727Z,15.35
2022-12-14T16:42:31.167Z,17.67
2022-12-14T16:45:02.657Z,14.35
2022-12-14T16:47:34.057Z,18.13
2022-12-14T16:50:47.661Z,16.52
2022-12-14T16:53:17.594Z,13.10
2022-12-14T16:56:01.476Z,15.43
2022-12-14T16:58:34.940Z,16.27
2022-12-14T17:01:09.150Z,17.37
2022-12-14T17:03:40.757Z,18.25
2022-12-14T17:06:22.750Z,16.75
2022-12-14T17:08:54.138Z,16.52
2022-12-14T17:11:25.593Z,16.33
2022-12-14T17:13:57.145Z,19.27
2022-12-14T17:16:28.656Z,19.48
2022-12-14T17:19:00.190Z,16.77
2022-12-14T17:21:31.758Z,18.02
2022-12-14T17:24:03.308Z,16.92
2022-12-14T17:26:34.718Z,18.52
2022-12-14T17:29:11.812Z,20.07
2022-12-14T17:31:49.819Z,19.45
2022-12-14T17:34:23.635Z,20.20
2022-12-14T17:36:55.235Z,19.88
2022-12-14T17:39:26.664Z,19.08
2022-12-14T17:41:58.109Z,21.20
2022-12-14T17:44:29.713Z,21.83
2022-12-14T17:47:01.166Z,22.52
2022-12-14T17:49:32.656Z,24.65
2022-12-14T17:52:06.437Z,20.70
2022-12-14T17:54:37.840Z,19.98
2022-12-14T17:57:22.892Z,21.95
2022-12-14T17:59:54.306Z,22.10
2022-12-14T18:02:31.087Z,23.58
2022-12-14T18:05:02.927Z,23.08
2022-12-14T18:07:34.344Z,24.67
2022-12-14T18:10:06.120Z,24.02
2022-12-14T18:12:37.560Z,25.10
2022-12-14T18:15:29.474Z,22.42
2022-12-14T18:18:00.932Z,22.53
2022-12-14T18:20:32.421Z,24.23
2022-12-14T18:23:03.830Z,23.83
2022-12-14T18:25:43.284Z,21.27
2022-12-14T18:28:20.030Z,19.83
2022-12-14T18:30:56.432Z,21.58
2022-12-14T18:33:28.622Z,20.20
2022-12-14T18:36:00.965Z,21.75
2022-12-14T18:38:32.403Z,22.40
2022-12-14T18:41:04.964Z,21.80
2022-12-14T18:43:40.303Z,20.58
2022-12-14T18:46:15.385Z,22.98
2022-12-14T18:48:47.006Z,20.33
2022-12-14T18:51:21.811Z,20.90
2022-12-14T18:53:58.178Z,19.85
2022-12-14T18:56:29.617Z,20.13
2022-12-14T18:59:01.080Z,23.80
2022-12-14T19:01:32.604Z,20.20
2022-12-14T19:04:04.415Z,21.40
2022-12-14T19:06:44.861Z,20.25
2022-12-14T19:09:16.835Z,18.90
2022-12-14T19:11:48.386Z,18.70
2022-12-14T19:14:21.244Z,20.60
2022-12-14T19:16:53.678Z,19.50
2022-12-14T19:19:31.197Z,21.88
2022-12-14T19:22:09.008Z,18.85
2022-12-14T19:24:40.533Z,26.13
2022-12-14T19:27:12.127Z,30.70
2022-12-14T19:29:43.668Z,28.05
2022-12-14T19:32:15.109Z,26.65
2022-12-14T19:34:47.634Z,26.42
2022-12-14T19:37:20.417Z,27.17
2022-12-14T19:39:53.404Z,27.02
2022-12-14T19:42:25.205Z,24.85
2022-12-14T19:44:56.631Z,23.70
2022-12-14T19:47:28.082Z,25.55
2022-12-14T19:49:59.477Z,29.40
2022-12-14T19:52:30.932Z,27.13
2022-12-14T19:55:02.541Z,23.23
2022-12-14T19:57:33.957Z,23.97
2022-12-14T20:00:08.413Z,23.40
2022-12-14T20:02:40.059Z,29.77
2022-12-14T20:05:11.675Z,24.95
2022-12-14T20:07:44.009Z,29.13
2022-12-14T20:10:15.612Z,26.08
2022-12-14T20:12:47.022Z,32.38
2022-12-14T20:15:18.456Z,27.80
2022-12-14T20:17:49.880Z,27.38
2022-12-14T20:20:23.017Z,29.25
2022-12-14T20:22:54.663Z,27.88
2022-12-14T20:25:26.053Z,32.78
2022-12-14T20:27:57.464Z,27.73
2022-12-14T20:30:29.216Z,28.52
2022-12-14T20:33:00.788Z,25.55
2022-12-14T20:35:33.437Z,25.38
2022-12-14T20:38:04.913Z,28.65
2022-12-14T20:40:38.920Z,26.45
2022-12-14T20:43:11.004Z,23.00
2022-12-14T20:45:43.394Z,24.95
2022-12-14T20:48:14.829Z,21.48
2022-12-14T20:50:50.400Z,19.90
2022-12-14T20:53:22.581Z,19.48
2022-12-14T20:55:54.060Z,16.52
2022-12-14T20:58:25.500Z,9.13
2022-12-14T21:00:56.967Z,10.33
2022-12-14T21:03:29.020Z,11.40
2022-12-14T21:06:00.933Z,10.57
2022-12-14T21:08:32.392Z,7.80
2022-12-14T21:11:03.891Z,7.30
2022-12-14T21:13:35.318Z,9.40
2022-12-14T21:16:09.622Z,9.77
2022-12-14T21:18:41.115Z,6.50
2022-12-14T21:21:12.575Z,5.70
2022-12-14T21:23:44.013Z,7.30
2022-12-14T21:26:15.498Z,8.77
2022-12-14T21:28:46.884Z,9.63
2022-12-14T21:31:18.353Z,8.05
2022-12-14T21:33:50.175Z,10.23
2022-12-14T21:36:21.840Z,9.43
2022-12-14T21:38:54.384Z,6.83
2022-12-14T21:41:25.780Z,7.13
2022-12-14T21:43:59.593Z,7.30
2022-12-14T21:46:31.226Z,6.60
2022-12-14T21:49:03.240Z,5.63
2022-12-14T21:51:34.666Z,6.18
2022-12-14T21:54:06.444Z,5.43
2022-12-14T21:56:38.881Z,5.22
2022-12-14T21:59:10.501Z,6.22
2022-12-14T22:01:42.447Z,5.45
2022-12-14T22:04:14.199Z,7.78
2022-12-14T22:06:45.702Z,6.15
2022-12-14T22:09:18.492Z,6.90
2022-12-14T22:11:50.144Z,8.90
2022-12-14T22:14:24.597Z,11.93
2022-12-14T22:16:56.013Z,12.13
2022-12-14T22:19:27.722Z,12.77
2022-12-14T22:21:59.317Z,11.48
2022-12-14T22:24:30.795Z,15.75
2022-12-14T22:27:02.247Z,16.15
2022-12-14T22:29:33.675Z,17.57
2022-12-14T22:32:05.660Z,15.35
2022-12-14T22:34:37.140Z,15.95
2022-12-14T22:37:08.616Z,13.18
2022-12-14T22:39:40.035Z,13.55
2022-12-14T22:42:11.445Z,14.93
2022-12-14T22:44:42.923Z,22.02
2022-12-14T22:47:14.472Z,18.93
2022-12-14T22:49:45.894Z,16.58
2022-12-14T22:52:22.869Z,15.38
2022-12-14T22:54:56.051Z,16.17
2022-12-14T22:57:28.112Z,17.08
2022-12-14T23:00:04.907Z,15.23
2022-12-14T23:02:36.533Z,13.97
2022-12-14T23:05:08.792Z,15.48
2022-12-14T23:07:40.192Z,11.20
2022-12-14T23:10:12.049Z,12.23
2022-12-14T23:12:43.484Z,14.20
2022-12-14T23:15:15.034Z,12.05
2022-12-14T23:17:46.470Z,14.05
2022-12-14T23:20:17.945Z,10.73
2022-12-14T23:22:49.710Z,12.98
2022-12-14T23:25:21.743Z,12.70
2022-12-14T23:27:53.197Z,13.45
2022-12-14T23:30:24.638Z,9.85
2022-12-14T23:32:57.306Z,12.05
2022-12-14T23:35:28.749Z,13.13
2022-12-14T23:38:07.378Z,8.38
2022-12-14T23:40:39.060Z,10.65
2022-12-14T23:43:16.327Z,16.73
2022-12-14T23:45:47.799Z,10.20
2022-12-14T23:48:19.308Z,8.88
2022-12-14T23:50:50.795Z,10.27
2022-12-14T23:53:22.198Z,10.20
2022-12-14T23:55:54.176Z,9.98
2022-12-14T23:58:25.590Z,8.00
